sensor_id;sensor_type;location;lat;lon;timestamp;temperature;humidity
3866;DHT22;1948;53.250;10.412;2023-04-16T00:00:44;9.60;99.90
3866;DHT22;1948;53.250;10.412;2023-04-16T00:03:11;9.60;99.90
3866;DHT22;1948;53.250;10.412;2023-04-16T00:05:39;9.60;99.90
3866;DHT22;1948;53.250;10.412;2023-04-16T00:08:08;9.60;99.90
3866;DHT22;1948;53.250;10.412;2023-04-16T00:10:35;9.60;99.90
3866;DHT22;1948;53.250;10.412;2023-04-16T00:13:05;9.60;99.90
3866;DHT22;1948;53.250;10.412;2023-04-16T00:15:32;9.70;99.90
3866;DHT22;1948;53.250;10.412;2023-04-16T00:17:59;9.70;99.90
3866;DHT22;1948;53.250;10.412;2023-04-16T00:20:26;9.70;99.90
3866;DHT22;1948;53.250;10.412;2023-04-16T00:22:53;9.60;99.90
3866;DHT22;1948;53.250;10.412;2023-04-16T00:25:22;9.60;99.90
3866;DHT22;1948;53.250;10.412;2023-04-16T00:27:49;9.60;99.90
3866;DHT22;1948;53.250;10.412;2023-04-16T00:30:16;9.60;99.90
3866;DHT22;1948;53.250;10.412;2023-04-16T00:32:45;9.60;99.90
3866;DHT22;1948;53.250;10.412;2023-04-16T00:35:12;9.60;99.90
3866;DHT22;1948;53.250;10.412;2023-04-16T00:37:39;9.60;99.90
3866;DHT22;1948;53.250;10.412;2023-04-16T00:40:10;9.60;99.90
3866;DHT22;1948;53.250;10.412;2023-04-16T00:42:37;9.60;99.90
3866;DHT22;1948;53.250;10.412;2023-04-16T00:45:04;9.60;99.90
3866;DHT22;1948;53.250;10.412;2023-04-16T00:47:32;9.60;99.90
3866;DHT22;1948;53.250;10.412;2023-04-16T00:50:03;9.60;99.90
3866;DHT22;1948;53.250;10.412;2023-04-16T00:52:33;9.70;99.90
3866;DHT22;1948;53.250;10.412;2023-04-16T00:55:00;9.70;99.90
3866;DHT22;1948;53.250;10.412;2023-04-16T00:57:30;9.60;99.90
3866;DHT22;1948;53.250;10.412;2023-04-16T00:59:57;9.70;99.90
3866;DHT22;1948;53.250;10.412;2023-04-16T01:02:24;9.70;99.90
3866;DHT22;1948;53.250;10.412;2023-04-16T01:04:51;9.80;99.90
3866;DHT22;1948;53.250;10.412;2023-04-16T01:07:18;9.70;99.90
3866;DHT22;1948;53.250;10.412;2023-04-16T01:09:45;9.70;99.90
3866;DHT22;1948;53.250;10.412;2023-04-16T01:12:14;9.70;99.90
3866;DHT22;1948;53.250;10.412;2023-04-16T01:14:44;9.70;99.90
3866;DHT22;1948;53.250;10.412;2023-04-16T01:17:11;9.70;99.90
3866;DHT22;1948;53.250;10.412;2023-04-16T01:19:43;9.70;99.90
3866;DHT22;1948;53.250;10.412;2023-04-16T01:22:09;9.80;99.90
3866;DHT22;1948;53.250;10.412;2023-04-16T01:24:37;9.80;99.90
3866;DHT22;1948;53.250;10.412;2023-04-16T01:27:06;9.80;99.90
3866;DHT22;1948;53.250;10.412;2023-04-16T01:29:35;9.80;99.90
3866;DHT22;1948;53.250;10.412;2023-04-16T01:32:02;9.90;99.90
3866;DHT22;1948;53.250;10.412;2023-04-16T01:34:32;9.90;99.90
3866;DHT22;1948;53.250;10.412;2023-04-16T01:37:02;9.90;99.90
3866;DHT22;1948;53.250;10.412;2023-04-16T01:39:29;9.90;99.90
3866;DHT22;1948;53.250;10.412;2023-04-16T01:41:57;9.90;99.90
3866;DHT22;1948;53.250;10.412;2023-04-16T01:44:24;9.90;99.90
3866;DHT22;1948;53.250;10.412;2023-04-16T01:46:53;9.90;99.90
3866;DHT22;1948;53.250;10.412;2023-04-16T01:49:21;9.90;99.90
3866;DHT22;1948;53.250;10.412;2023-04-16T01:51:48;9.90;99.90
3866;DHT22;1948;53.250;10.412;2023-04-16T01:54:15;9.90;99.90
3866;DHT22;1948;53.250;10.412;2023-04-16T01:56:42;9.90;99.90
3866;DHT22;1948;53.250;10.412;2023-04-16T01:59:09;9.90;99.90
3866;DHT22;1948;53.250;10.412;2023-04-16T02:01:40;9.90;99.90
3866;DHT22;1948;53.250;10.412;2023-04-16T02:04:08;9.90;99.90
3866;DHT22;1948;53.250;10.412;2023-04-16T02:06:36;9.90;99.90
3866;DHT22;1948;53.250;10.412;2023-04-16T02:09:03;9.90;99.90
3866;DHT22;1948;53.250;10.412;2023-04-16T02:11:30;9.90;99.90
3866;DHT22;1948;53.250;10.412;2023-04-16T02:13:57;9.90;99.90
3866;DHT22;1948;53.250;10.412;2023-04-16T02:16:24;9.90;99.90
3866;DHT22;1948;53.250;10.412;2023-04-16T02:18:52;9.90;99.90
3866;DHT22;1948;53.250;10.412;2023-04-16T02:21:18;9.90;99.90
3866;DHT22;1948;53.250;10.412;2023-04-16T02:23:48;9.90;99.90
3866;DHT22;1948;53.250;10.412;2023-04-16T02:26:17;9.90;99.90
3866;DHT22;1948;53.250;10.412;2023-04-16T02:28:47;9.90;99.90
3866;DHT22;1948;53.250;10.412;2023-04-16T02:31:16;9.90;99.90
3866;DHT22;1948;53.250;10.412;2023-04-16T02:33:45;9.90;99.90
3866;DHT22;1948;53.250;10.412;2023-04-16T02:36:12;9.90;99.90
3866;DHT22;1948;53.250;10.412;2023-04-16T02:38:41;9.90;99.90
3866;DHT22;1948;53.250;10.412;2023-04-16T02:41:11;9.90;99.90
3866;DHT22;1948;53.250;10.412;2023-04-16T02:43:38;9.90;99.90
3866;DHT22;1948;53.250;10.412;2023-04-16T02:46:05;9.90;99.90
3866;DHT22;1948;53.250;10.412;2023-04-16T02:48:32;9.80;99.90
3866;DHT22;1948;53.250;10.412;2023-04-16T02:50:59;9.80;99.90
3866;DHT22;1948;53.250;10.412;2023-04-16T02:53:26;9.70;99.90
3866;DHT22;1948;53.250;10.412;2023-04-16T02:55:54;9.70;99.90
3866;DHT22;1948;53.250;10.412;2023-04-16T02:58:23;9.70;99.90
3866;DHT22;1948;53.250;10.412;2023-04-16T03:00:54;9.70;99.90
3866;DHT22;1948;53.250;10.412;2023-04-16T03:03:23;9.70;99.90
3866;DHT22;1948;53.250;10.412;2023-04-16T03:05:50;9.60;99.90
3866;DHT22;1948;53.250;10.412;2023-04-16T03:08:17;9.60;99.90
3866;DHT22;1948;53.250;10.412;2023-04-16T03:10:47;9.70;99.90
3866;DHT22;1948;53.250;10.412;2023-04-16T03:13:14;9.70;99.90
3866;DHT22;1948;53.250;10.412;2023-04-16T03:15:46;9.70;99.90
3866;DHT22;1948;53.250;10.412;2023-04-16T03:18:14;9.70;99.90
3866;DHT22;1948;53.250;10.412;2023-04-16T03:20:41;9.70;99.90
3866;DHT22;1948;53.250;10.412;2023-04-16T03:23:13;9.70;99.90
3866;DHT22;1948;53.250;10.412;2023-04-16T03:25:40;9.70;99.90
3866;DHT22;1948;53.250;10.412;2023-04-16T03:28:11;9.80;99.90
3866;DHT22;1948;53.250;10.412;2023-04-16T03:30:38;9.70;99.90
3866;DHT22;1948;53.250;10.412;2023-04-16T03:33:05;9.70;99.90
3866;DHT22;1948;53.250;10.412;2023-04-16T03:35:32;9.70;99.90
3866;DHT22;1948;53.250;10.412;2023-04-16T03:38:06;9.70;99.90
3866;DHT22;1948;53.250;10.412;2023-04-16T03:40:33;9.70;99.90
3866;DHT22;1948;53.250;10.412;2023-04-16T03:43:05;9.70;99.90
3866;DHT22;1948;53.250;10.412;2023-04-16T03:45:32;9.70;99.90
3866;DHT22;1948;53.250;10.412;2023-04-16T03:48:02;9.70;99.90
3866;DHT22;1948;53.250;10.412;2023-04-16T03:50:34;9.70;99.90
3866;DHT22;1948;53.250;10.412;2023-04-16T03:53:04;9.70;99.90
3866;DHT22;1948;53.250;10.412;2023-04-16T03:55:31;9.80;99.90
3866;DHT22;1948;53.250;10.412;2023-04-16T03:57:58;9.70;99.90
3866;DHT22;1948;53.250;10.412;2023-04-16T04:00:28;9.80;99.90
3866;DHT22;1948;53.250;10.412;2023-04-16T04:03:01;9.80;99.90
3866;DHT22;1948;53.250;10.412;2023-04-16T04:05:34;9.80;99.90
3866;DHT22;1948;53.250;10.412;2023-04-16T04:08:04;9.80;99.90
3866;DHT22;1948;53.250;10.412;2023-04-16T04:10:34;9.80;99.90
3866;DHT22;1948;53.250;10.412;2023-04-16T04:13:03;9.80;99.90
3866;DHT22;1948;53.250;10.412;2023-04-16T04:15:31;9.80;99.90
3866;DHT22;1948;53.250;10.412;2023-04-16T04:17:58;9.70;99.90
3866;DHT22;1948;53.250;10.412;2023-04-16T04:20:29;9.70;99.90
3866;DHT22;1948;53.250;10.412;2023-04-16T04:22:58;9.80;99.90
3866;DHT22;1948;53.250;10.412;2023-04-16T04:25:27;9.80;99.90
3866;DHT22;1948;53.250;10.412;2023-04-16T04:27:54;9.80;99.90
3866;DHT22;1948;53.250;10.412;2023-04-16T04:30:27;9.80;99.90
3866;DHT22;1948;53.250;10.412;2023-04-16T04:32:56;9.80;99.90
3866;DHT22;1948;53.250;10.412;2023-04-16T04:35:26;9.80;99.90
3866;DHT22;1948;53.250;10.412;2023-04-16T04:37:55;9.80;99.90
3866;DHT22;1948;53.250;10.412;2023-04-16T04:40:22;9.90;99.90
3866;DHT22;1948;53.250;10.412;2023-04-16T04:42:55;9.80;99.90
3866;DHT22;1948;53.250;10.412;2023-04-16T04:45:24;9.80;99.90
3866;DHT22;1948;53.250;10.412;2023-04-16T04:47:52;9.80;99.90
3866;DHT22;1948;53.250;10.412;2023-04-16T04:50:20;9.80;99.90
3866;DHT22;1948;53.250;10.412;2023-04-16T04:52:49;9.80;99.90
3866;DHT22;1948;53.250;10.412;2023-04-16T04:55:16;9.90;99.90
3866;DHT22;1948;53.250;10.412;2023-04-16T04:57:47;9.90;99.90
3866;DHT22;1948;53.250;10.412;2023-04-16T05:00:16;9.90;99.90
3866;DHT22;1948;53.250;10.412;2023-04-16T05:02:46;9.90;99.90
3866;DHT22;1948;53.250;10.412;2023-04-16T05:05:15;9.80;99.90
3866;DHT22;1948;53.250;10.412;2023-04-16T05:07:45;9.90;99.90
3866;DHT22;1948;53.250;10.412;2023-04-16T05:10:13;9.90;99.90
3866;DHT22;1948;53.250;10.412;2023-04-16T05:12:40;9.90;99.90
3866;DHT22;1948;53.250;10.412;2023-04-16T05:15:07;9.90;99.90
3866;DHT22;1948;53.250;10.412;2023-04-16T05:17:34;9.90;99.90
3866;DHT22;1948;53.250;10.412;2023-04-16T05:20:01;9.90;99.90
3866;DHT22;1948;53.250;10.412;2023-04-16T05:22:29;9.90;99.90
3866;DHT22;1948;53.250;10.412;2023-04-16T05:24:58;9.90;99.90
3866;DHT22;1948;53.250;10.412;2023-04-16T05:27:27;10.00;99.90
3866;DHT22;1948;53.250;10.412;2023-04-16T05:29:56;9.90;99.90
3866;DHT22;1948;53.250;10.412;2023-04-16T05:32:25;9.90;99.90
3866;DHT22;1948;53.250;10.412;2023-04-16T05:34:53;10.00;99.90
3866;DHT22;1948;53.250;10.412;2023-04-16T05:37:21;10.00;99.90
3866;DHT22;1948;53.250;10.412;2023-04-16T05:39:48;10.00;99.90
3866;DHT22;1948;53.250;10.412;2023-04-16T05:42:15;10.00;99.90
3866;DHT22;1948;53.250;10.412;2023-04-16T05:44:44;10.00;99.90
3866;DHT22;1948;53.250;10.412;2023-04-16T05:47:11;10.00;99.90
3866;DHT22;1948;53.250;10.412;2023-04-16T05:49:38;10.10;99.90
3866;DHT22;1948;53.250;10.412;2023-04-16T05:52:05;10.10;99.90
3866;DHT22;1948;53.250;10.412;2023-04-16T05:54:34;10.20;99.90
3866;DHT22;1948;53.250;10.412;2023-04-16T05:57:04;10.10;99.90
3866;DHT22;1948;53.250;10.412;2023-04-16T05:59:31;10.20;99.90
3866;DHT22;1948;53.250;10.412;2023-04-16T06:02:00;10.20;99.90
3866;DHT22;1948;53.250;10.412;2023-04-16T06:04:30;10.20;99.90
3866;DHT22;1948;53.250;10.412;2023-04-16T06:06:59;10.20;99.90
3866;DHT22;1948;53.250;10.412;2023-04-16T06:09:31;10.20;99.90
3866;DHT22;1948;53.250;10.412;2023-04-16T06:11:58;10.20;99.90
3866;DHT22;1948;53.250;10.412;2023-04-16T06:14:26;10.20;99.90
3866;DHT22;1948;53.250;10.412;2023-04-16T06:16:55;10.30;99.90
3866;DHT22;1948;53.250;10.412;2023-04-16T06:19:22;10.30;99.90
3866;DHT22;1948;53.250;10.412;2023-04-16T06:21:49;10.30;99.90
3866;DHT22;1948;53.250;10.412;2023-04-16T06:24:16;10.30;99.90
3866;DHT22;1948;53.250;10.412;2023-04-16T06:26:44;10.30;99.90
3866;DHT22;1948;53.250;10.412;2023-04-16T06:29:13;10.30;99.90
3866;DHT22;1948;53.250;10.412;2023-04-16T06:31:40;10.30;99.90
3866;DHT22;1948;53.250;10.412;2023-04-16T06:34:07;10.40;99.90
3866;DHT22;1948;53.250;10.412;2023-04-16T06:36:35;10.40;99.90
3866;DHT22;1948;53.250;10.412;2023-04-16T06:39:03;10.40;99.90
3866;DHT22;1948;53.250;10.412;2023-04-16T06:41:30;10.50;99.90
3866;DHT22;1948;53.250;10.412;2023-04-16T06:43:59;10.50;99.90
3866;DHT22;1948;53.250;10.412;2023-04-16T06:46:26;10.50;99.90
3866;DHT22;1948;53.250;10.412;2023-04-16T06:48:53;10.50;99.90
3866;DHT22;1948;53.250;10.412;2023-04-16T06:51:22;10.40;99.90
3866;DHT22;1948;53.250;10.412;2023-04-16T06:53:49;10.40;99.90
3866;DHT22;1948;53.250;10.412;2023-04-16T06:56:17;10.40;99.90
3866;DHT22;1948;53.250;10.412;2023-04-16T06:58:44;10.40;99.90
3866;DHT22;1948;53.250;10.412;2023-04-16T07:01:11;10.40;99.90
3866;DHT22;1948;53.250;10.412;2023-04-16T07:03:38;10.50;99.90
3866;DHT22;1948;53.250;10.412;2023-04-16T07:06:06;10.50;99.90
3866;DHT22;1948;53.250;10.412;2023-04-16T07:08:35;10.60;99.90
3866;DHT22;1948;53.250;10.412;2023-04-16T07:11:02;10.60;99.90
3866;DHT22;1948;53.250;10.412;2023-04-16T07:13:35;10.70;99.90
3866;DHT22;1948;53.250;10.412;2023-04-16T07:16:02;10.70;99.90
3866;DHT22;1948;53.250;10.412;2023-04-16T07:18:31;10.70;99.90
3866;DHT22;1948;53.250;10.412;2023-04-16T07:20:58;10.60;99.90
3866;DHT22;1948;53.250;10.412;2023-04-16T07:23:25;10.70;99.90
3866;DHT22;1948;53.250;10.412;2023-04-16T07:25:57;10.70;99.90
3866;DHT22;1948;53.250;10.412;2023-04-16T07:28:24;10.80;99.90
3866;DHT22;1948;53.250;10.412;2023-04-16T07:30:51;10.80;99.90
3866;DHT22;1948;53.250;10.412;2023-04-16T07:33:18;10.80;99.90
3866;DHT22;1948;53.250;10.412;2023-04-16T07:35:45;10.80;99.90
3866;DHT22;1948;53.250;10.412;2023-04-16T07:38:13;10.90;99.90
3866;DHT22;1948;53.250;10.412;2023-04-16T07:40:42;11.00;99.90
3866;DHT22;1948;53.250;10.412;2023-04-16T07:43:09;11.00;99.90
3866;DHT22;1948;53.250;10.412;2023-04-16T07:45:36;11.10;99.90
3866;DHT22;1948;53.250;10.412;2023-04-16T07:48:03;11.10;99.90
3866;DHT22;1948;53.250;10.412;2023-04-16T07:50:31;11.20;99.90
3866;DHT22;1948;53.250;10.412;2023-04-16T07:52:58;11.40;99.90
3866;DHT22;1948;53.250;10.412;2023-04-16T07:55:28;11.40;99.90
3866;DHT22;1948;53.250;10.412;2023-04-16T07:57:57;11.40;99.90
3866;DHT22;1948;53.250;10.412;2023-04-16T08:00:24;11.50;99.90
3866;DHT22;1948;53.250;10.412;2023-04-16T08:02:54;11.50;99.90
3866;DHT22;1948;53.250;10.412;2023-04-16T08:05:21;11.40;99.90
3866;DHT22;1948;53.250;10.412;2023-04-16T08:07:51;11.40;99.90
3866;DHT22;1948;53.250;10.412;2023-04-16T08:10:20;11.60;99.90
3866;DHT22;1948;53.250;10.412;2023-04-16T08:12:47;11.70;99.90
3866;DHT22;1948;53.250;10.412;2023-04-16T08:15:17;11.80;99.90
3866;DHT22;1948;53.250;10.412;2023-04-16T08:17:44;11.80;99.90
3866;DHT22;1948;53.250;10.412;2023-04-16T08:20:14;11.90;99.90
3866;DHT22;1948;53.250;10.412;2023-04-16T08:22:45;12.00;99.90
3866;DHT22;1948;53.250;10.412;2023-04-16T08:25:13;12.10;99.90
3866;DHT22;1948;53.250;10.412;2023-04-16T08:27:43;12.10;99.90
3866;DHT22;1948;53.250;10.412;2023-04-16T08:30:10;12.20;99.90
3866;DHT22;1948;53.250;10.412;2023-04-16T08:32:37;12.30;99.90
3866;DHT22;1948;53.250;10.412;2023-04-16T08:35:05;12.40;99.90
3866;DHT22;1948;53.250;10.412;2023-04-16T08:37:32;12.40;99.90
3866;DHT22;1948;53.250;10.412;2023-04-16T08:39:58;12.50;99.90
3866;DHT22;1948;53.250;10.412;2023-04-16T08:42:38;12.60;99.90
3866;DHT22;1948;53.250;10.412;2023-04-16T08:45:17;12.60;99.90
3866;DHT22;1948;53.250;10.412;2023-04-16T08:47:50;12.60;99.90
3866;DHT22;1948;53.250;10.412;2023-04-16T08:50:25;12.60;99.90
3866;DHT22;1948;53.250;10.412;2023-04-16T08:52:59;12.70;99.90
3866;DHT22;1948;53.250;10.412;2023-04-16T08:55:31;12.70;99.90
3866;DHT22;1948;53.250;10.412;2023-04-16T08:58:20;12.70;99.90
3866;DHT22;1948;53.250;10.412;2023-04-16T09:00:48;12.70;99.90
3866;DHT22;1948;53.250;10.412;2023-04-16T09:03:16;12.50;99.90
3866;DHT22;1948;53.250;10.412;2023-04-16T09:05:45;12.40;99.90
3866;DHT22;1948;53.250;10.412;2023-04-16T09:08:14;12.40;99.90
3866;DHT22;1948;53.250;10.412;2023-04-16T09:10:42;12.30;99.90
3866;DHT22;1948;53.250;10.412;2023-04-16T09:13:14;12.30;99.90
3866;DHT22;1948;53.250;10.412;2023-04-16T09:15:46;12.30;99.90
3866;DHT22;1948;53.250;10.412;2023-04-16T09:18:15;12.30;99.90
3866;DHT22;1948;53.250;10.412;2023-04-16T09:20:42;12.20;99.90
3866;DHT22;1948;53.250;10.412;2023-04-16T09:23:09;12.20;99.90
3866;DHT22;1948;53.250;10.412;2023-04-16T09:25:36;12.40;99.90
3866;DHT22;1948;53.250;10.412;2023-04-16T09:28:04;12.40;99.90
3866;DHT22;1948;53.250;10.412;2023-04-16T09:30:36;12.40;99.90
3866;DHT22;1948;53.250;10.412;2023-04-16T09:33:17;12.40;99.90
3866;DHT22;1948;53.250;10.412;2023-04-16T09:35:52;12.60;99.90
3866;DHT22;1948;53.250;10.412;2023-04-16T09:38:19;12.60;99.90
3866;DHT22;1948;53.250;10.412;2023-04-16T09:41:05;12.70;99.90
3866;DHT22;1948;53.250;10.412;2023-04-16T09:43:33;12.90;99.90
3866;DHT22;1948;53.250;10.412;2023-04-16T09:46:03;12.80;99.90
3866;DHT22;1948;53.250;10.412;2023-04-16T09:48:33;12.90;99.90
3866;DHT22;1948;53.250;10.412;2023-04-16T09:51:01;13.00;99.90
3866;DHT22;1948;53.250;10.412;2023-04-16T09:53:32;13.20;99.90
3866;DHT22;1948;53.250;10.412;2023-04-16T09:56:04;13.50;99.90
3866;DHT22;1948;53.250;10.412;2023-04-16T09:58:35;13.60;99.90
3866;DHT22;1948;53.250;10.412;2023-04-16T10:01:07;13.80;99.90
3866;DHT22;1948;53.250;10.412;2023-04-16T10:03:36;13.90;99.90
3866;DHT22;1948;53.250;10.412;2023-04-16T10:06:16;13.80;99.90
3866;DHT22;1948;53.250;10.412;2023-04-16T10:08:48;13.80;99.90
3866;DHT22;1948;53.250;10.412;2023-04-16T10:11:18;13.60;99.90
3866;DHT22;1948;53.250;10.412;2023-04-16T10:13:46;13.50;99.90
3866;DHT22;1948;53.250;10.412;2023-04-16T10:16:13;13.30;99.90
3866;DHT22;1948;53.250;10.412;2023-04-16T10:18:42;13.20;99.90
3866;DHT22;1948;53.250;10.412;2023-04-16T10:21:10;13.10;99.90
3866;DHT22;1948;53.250;10.412;2023-04-16T10:23:39;13.00;99.90
3866;DHT22;1948;53.250;10.412;2023-04-16T10:26:09;13.00;99.90
3866;DHT22;1948;53.250;10.412;2023-04-16T10:28:36;13.00;99.90
3866;DHT22;1948;53.250;10.412;2023-04-16T10:31:06;13.00;99.90
3866;DHT22;1948;53.250;10.412;2023-04-16T10:33:39;13.10;99.90
3866;DHT22;1948;53.250;10.412;2023-04-16T10:36:14;13.10;99.90
3866;DHT22;1948;53.250;10.412;2023-04-16T10:41:13;13.10;99.90
3866;DHT22;1948;53.250;10.412;2023-04-16T10:43:45;13.30;99.90
3866;DHT22;1948;53.250;10.412;2023-04-16T10:49:02;14.00;99.90
3866;DHT22;1948;53.250;10.412;2023-04-16T10:54:26;14.80;99.90
3866;DHT22;1948;53.250;10.412;2023-04-16T10:56:58;15.00;99.90
3866;DHT22;1948;53.250;10.412;2023-04-16T10:59:34;15.10;99.90
3866;DHT22;1948;53.250;10.412;2023-04-16T11:02:16;15.10;99.90
3866;DHT22;1948;53.250;10.412;2023-04-16T11:04:46;14.90;99.90
3866;DHT22;1948;53.250;10.412;2023-04-16T11:07:15;14.90;99.90
3866;DHT22;1948;53.250;10.412;2023-04-16T11:09:56;14.90;99.90
3866;DHT22;1948;53.250;10.412;2023-04-16T11:15:12;15.40;99.90
3866;DHT22;1948;53.250;10.412;2023-04-16T11:17:45;15.60;99.90
3866;DHT22;1948;53.250;10.412;2023-04-16T11:20:23;15.80;99.90
3866;DHT22;1948;53.250;10.412;2023-04-16T11:22:55;15.80;99.90
3866;DHT22;1948;53.250;10.412;2023-04-16T11:25:28;16.00;99.90
3866;DHT22;1948;53.250;10.412;2023-04-16T11:28:01;16.30;99.90
3866;DHT22;1948;53.250;10.412;2023-04-16T11:30:34;17.30;99.90
3866;DHT22;1948;53.250;10.412;2023-04-16T11:33:08;18.60;99.90
3866;DHT22;1948;53.250;10.412;2023-04-16T11:35:39;19.20;99.90
3866;DHT22;1948;53.250;10.412;2023-04-16T11:38:06;18.60;99.90
3866;DHT22;1948;53.250;10.412;2023-04-16T11:40:36;18.70;99.90
3866;DHT22;1948;53.250;10.412;2023-04-16T11:43:15;18.90;99.90
3866;DHT22;1948;53.250;10.412;2023-04-16T11:46:02;19.30;99.90
3866;DHT22;1948;53.250;10.412;2023-04-16T11:51:20;18.40;99.90
3866;DHT22;1948;53.250;10.412;2023-04-16T11:53:53;18.20;99.90
3866;DHT22;1948;53.250;10.412;2023-04-16T11:56:31;18.20;99.90
3866;DHT22;1948;53.250;10.412;2023-04-16T12:01:48;17.70;99.90
3866;DHT22;1948;53.250;10.412;2023-04-16T12:04:21;17.30;99.90
3866;DHT22;1948;53.250;10.412;2023-04-16T12:09:40;16.90;99.90
3866;DHT22;1948;53.250;10.412;2023-04-16T12:12:28;16.80;99.90
3866;DHT22;1948;53.250;10.412;2023-04-16T12:14:57;16.70;99.90
3866;DHT22;1948;53.250;10.412;2023-04-16T12:17:36;16.90;99.90
3866;DHT22;1948;53.250;10.412;2023-04-16T12:20:13;17.00;99.90
3866;DHT22;1948;53.250;10.412;2023-04-16T12:22:46;17.30;99.90
3866;DHT22;1948;53.250;10.412;2023-04-16T12:25:16;17.40;99.90
3866;DHT22;1948;53.250;10.412;2023-04-16T12:27:47;17.20;99.90
3866;DHT22;1948;53.250;10.412;2023-04-16T12:30:22;17.00;99.90
3866;DHT22;1948;53.250;10.412;2023-04-16T12:33:15;16.80;99.90
3866;DHT22;1948;53.250;10.412;2023-04-16T12:35:44;16.40;99.90
3866;DHT22;1948;53.250;10.412;2023-04-16T12:38:13;16.10;99.90
3866;DHT22;1948;53.250;10.412;2023-04-16T12:40:41;15.90;99.90
3866;DHT22;1948;53.250;10.412;2023-04-16T12:43:08;15.70;99.90
3866;DHT22;1948;53.250;10.412;2023-04-16T12:45:38;15.50;99.90
3866;DHT22;1948;53.250;10.412;2023-04-16T12:48:08;15.30;99.90
3866;DHT22;1948;53.250;10.412;2023-04-16T12:50:35;15.00;99.90
3866;DHT22;1948;53.250;10.412;2023-04-16T12:53:05;14.80;99.90
3866;DHT22;1948;53.250;10.412;2023-04-16T12:55:37;14.70;99.90
3866;DHT22;1948;53.250;10.412;2023-04-16T12:58:07;14.60;99.90
3866;DHT22;1948;53.250;10.412;2023-04-16T13:00:40;14.70;99.90
3866;DHT22;1948;53.250;10.412;2023-04-16T13:03:07;14.70;99.90
3866;DHT22;1948;53.250;10.412;2023-04-16T13:05:34;14.70;99.90
3866;DHT22;1948;53.250;10.412;2023-04-16T13:08:01;14.60;99.90
3866;DHT22;1948;53.250;10.412;2023-04-16T13:10:28;14.70;99.90
3866;DHT22;1948;53.250;10.412;2023-04-16T13:12:57;14.70;99.90
3866;DHT22;1948;53.250;10.412;2023-04-16T13:15:24;14.70;99.90
3866;DHT22;1948;53.250;10.412;2023-04-16T13:17:51;14.80;99.90
3866;DHT22;1948;53.250;10.412;2023-04-16T13:20:18;15.00;99.90
3866;DHT22;1948;53.250;10.412;2023-04-16T13:22:50;14.80;99.90
3866;DHT22;1948;53.250;10.412;2023-04-16T13:25:17;14.80;99.90
3866;DHT22;1948;53.250;10.412;2023-04-16T13:27:44;14.80;99.90
3866;DHT22;1948;53.250;10.412;2023-04-16T13:30:11;14.90;99.90
3866;DHT22;1948;53.250;10.412;2023-04-16T13:32:38;15.00;99.90
3866;DHT22;1948;53.250;10.412;2023-04-16T13:35:06;15.00;99.90
3866;DHT22;1948;53.250;10.412;2023-04-16T13:37:38;15.00;99.90
3866;DHT22;1948;53.250;10.412;2023-04-16T13:40:08;15.00;99.90
3866;DHT22;1948;53.250;10.412;2023-04-16T13:42:36;15.10;99.90
3866;DHT22;1948;53.250;10.412;2023-04-16T13:45:03;15.20;99.90
3866;DHT22;1948;53.250;10.412;2023-04-16T13:47:31;15.10;99.90
3866;DHT22;1948;53.250;10.412;2023-04-16T13:49:58;14.90;99.90
3866;DHT22;1948;53.250;10.412;2023-04-16T13:52:28;14.80;99.90
3866;DHT22;1948;53.250;10.412;2023-04-16T13:54:55;15.00;99.90
3866;DHT22;1948;53.250;10.412;2023-04-16T13:57:25;15.40;99.90
3866;DHT22;1948;53.250;10.412;2023-04-16T13:59:55;15.90;99.90
3866;DHT22;1948;53.250;10.412;2023-04-16T14:02:22;16.00;99.90
3866;DHT22;1948;53.250;10.412;2023-04-16T14:04:51;16.20;99.90
3866;DHT22;1948;53.250;10.412;2023-04-16T14:07:18;16.30;99.90
3866;DHT22;1948;53.250;10.412;2023-04-16T14:09:51;16.40;99.90
3866;DHT22;1948;53.250;10.412;2023-04-16T14:12:18;16.50;99.90
3866;DHT22;1948;53.250;10.412;2023-04-16T14:14:45;16.50;99.90
3866;DHT22;1948;53.250;10.412;2023-04-16T14:17:17;16.40;99.90
3866;DHT22;1948;53.250;10.412;2023-04-16T14:19:44;16.00;99.90
3866;DHT22;1948;53.250;10.412;2023-04-16T14:22:14;15.80;99.90
3866;DHT22;1948;53.250;10.412;2023-04-16T14:24:44;15.60;99.90
3866;DHT22;1948;53.250;10.412;2023-04-16T14:27:11;15.30;99.90
3866;DHT22;1948;53.250;10.412;2023-04-16T14:29:41;15.30;99.90
3866;DHT22;1948;53.250;10.412;2023-04-16T14:32:12;15.40;99.90
3866;DHT22;1948;53.250;10.412;2023-04-16T14:34:39;15.20;99.90
3866;DHT22;1948;53.250;10.412;2023-04-16T14:37:08;15.10;99.90
3866;DHT22;1948;53.250;10.412;2023-04-16T14:39:36;15.00;99.90
3866;DHT22;1948;53.250;10.412;2023-04-16T14:42:05;15.10;99.90
3866;DHT22;1948;53.250;10.412;2023-04-16T14:44:32;15.00;99.90
3866;DHT22;1948;53.250;10.412;2023-04-16T14:46:59;15.10;99.90
3866;DHT22;1948;53.250;10.412;2023-04-16T14:49:26;15.00;99.90
3866;DHT22;1948;53.250;10.412;2023-04-16T14:51:53;14.90;99.90
3866;DHT22;1948;53.250;10.412;2023-04-16T14:54:20;14.80;99.90
3866;DHT22;1948;53.250;10.412;2023-04-16T14:56:48;14.90;99.90
3866;DHT22;1948;53.250;10.412;2023-04-16T14:59:15;14.90;99.90
3866;DHT22;1948;53.250;10.412;2023-04-16T15:01:46;14.90;99.90
3866;DHT22;1948;53.250;10.412;2023-04-16T15:04:13;14.90;99.90
3866;DHT22;1948;53.250;10.412;2023-04-16T15:06:42;14.80;99.90
3866;DHT22;1948;53.250;10.412;2023-04-16T15:09:09;14.90;99.90
3866;DHT22;1948;53.250;10.412;2023-04-16T15:11:36;14.70;99.90
3866;DHT22;1948;53.250;10.412;2023-04-16T15:14:04;14.60;99.90
3866;DHT22;1948;53.250;10.412;2023-04-16T15:16:33;14.40;99.90
3866;DHT22;1948;53.250;10.412;2023-04-16T15:19:00;14.40;99.90
3866;DHT22;1948;53.250;10.412;2023-04-16T15:21:30;14.50;99.90
3866;DHT22;1948;53.250;10.412;2023-04-16T15:23:59;14.40;99.90
3866;DHT22;1948;53.250;10.412;2023-04-16T15:26:27;14.30;99.90
3866;DHT22;1948;53.250;10.412;2023-04-16T15:28:54;14.30;99.90
3866;DHT22;1948;53.250;10.412;2023-04-16T15:31:22;14.40;99.90
3866;DHT22;1948;53.250;10.412;2023-04-16T15:33:49;14.20;99.90
3866;DHT22;1948;53.250;10.412;2023-04-16T15:36:16;14.10;99.90
3866;DHT22;1948;53.250;10.412;2023-04-16T15:38:45;13.90;99.90
3866;DHT22;1948;53.250;10.412;2023-04-16T15:41:17;13.90;99.90
3866;DHT22;1948;53.250;10.412;2023-04-16T15:43:47;13.80;99.90
3866;DHT22;1948;53.250;10.412;2023-04-16T15:46:15;13.80;99.90
3866;DHT22;1948;53.250;10.412;2023-04-16T15:48:44;13.80;99.90
3866;DHT22;1948;53.250;10.412;2023-04-16T15:51:16;13.80;99.90
3866;DHT22;1948;53.250;10.412;2023-04-16T15:53:45;13.80;99.90
3866;DHT22;1948;53.250;10.412;2023-04-16T15:56:13;13.80;99.90
3866;DHT22;1948;53.250;10.412;2023-04-16T15:58:40;13.80;99.90
3866;DHT22;1948;53.250;10.412;2023-04-16T16:01:14;13.80;99.90
3866;DHT22;1948;53.250;10.412;2023-04-16T16:03:42;13.80;99.90
3866;DHT22;1948;53.250;10.412;2023-04-16T16:06:10;13.80;99.90
3866;DHT22;1948;53.250;10.412;2023-04-16T16:08:37;13.70;99.90
3866;DHT22;1948;53.250;10.412;2023-04-16T16:11:04;13.70;99.90
3866;DHT22;1948;53.250;10.412;2023-04-16T16:13:34;13.70;99.90
3866;DHT22;1948;53.250;10.412;2023-04-16T16:16:03;13.70;99.90
3866;DHT22;1948;53.250;10.412;2023-04-16T16:18:30;13.60;99.90
3866;DHT22;1948;53.250;10.412;2023-04-16T16:21:02;13.70;99.90
3866;DHT22;1948;53.250;10.412;2023-04-16T16:23:29;13.60;99.90